Main page
METAR-TAF:

METAR-TAF

Airports :

Land's End Airport

Land's End, England

latitude: 50-06-10N, longitude: 005-40-14W, elevation: 122 m

METAR: missing

Time: 18:51 (18:51 UTC)

Forecast

The report was made 31 hours and 57 minutes ago, at 10:54 UTC
Forecast valid from 28 at 12 UTC to 28 at 21 UTC
Wind 5 kt from the North/Northwest
Visibility 10 km or more
Broken clouds at a height of 3000 ft

TAF: EGHC 281054Z 2812/2821 34005KT 9999 BKN030

Weather observations and forecasts of more than 4000 airports (METAR and TAF reports).

The available stations are represented by yellow and red dots on the map.

Hover mouse over dot to see the name of the station.

Then click to see weather observations and forecasts.

To change the map : click on the green buttons with a black cross to zoom in, on the green button with a dash to zoom out, or on the green arrows for adjacent maps.


METAR-TAF: